createdAt,value
2022-12-17T00:09:40.397Z,103.00
2022-12-17T00:20:03.495Z,90.80
2022-12-17T00:30:26.834Z,99.30
2022-12-17T00:40:49.756Z,82.30
2022-12-17T00:51:14.476Z,68.80
2022-12-17T01:01:37.969Z,98.20
2022-12-17T01:12:01.334Z,91.40
2022-12-17T01:22:24.216Z,101.90
2022-12-17T01:32:47.443Z,96.10
2022-12-17T01:43:09.906Z,98.00
2022-12-17T01:53:36.713Z,96.20
2022-12-17T02:03:59.184Z,97.40
2022-12-17T02:14:47.061Z,88.50
2022-12-17T02:25:21.035Z,97.50
2022-12-17T02:35:59.116Z,83.40
2022-12-17T02:46:22.989Z,86.50
2022-12-17T02:56:56.457Z,90.50
2022-12-17T03:07:20.886Z,81.80
2022-12-17T03:17:43.437Z,72.80
2022-12-17T03:28:05.859Z,83.90
2022-12-17T03:38:30.242Z,79.30
2022-12-17T03:48:52.687Z,69.10
2022-12-17T03:59:15.173Z,82.90
2022-12-17T04:09:37.566Z,77.20
2022-12-17T04:20:00.371Z,59.20
2022-12-17T04:30:23.901Z,63.90
2022-12-17T04:40:46.579Z,60.80
2022-12-17T04:51:08.979Z,52.20
2022-12-17T05:01:31.856Z,51.00
2022-12-17T05:11:54.892Z,42.10
2022-12-17T05:22:17.795Z,44.40
2022-12-17T05:32:40.493Z,43.00
2022-12-17T05:43:13.628Z,38.20
2022-12-17T05:53:37.058Z,37.70
2022-12-17T06:04:00.527Z,48.60
2022-12-17T06:14:22.844Z,48.20
2022-12-17T06:24:46.345Z,46.20
2022-12-17T06:35:08.980Z,62.80
2022-12-17T06:45:31.957Z,56.90
2022-12-17T06:55:55.173Z,62.10
2022-12-17T07:06:20.536Z,72.80
2022-12-17T07:16:42.905Z,62.00
2022-12-17T07:27:05.755Z,62.40
2022-12-17T07:37:28.426Z,62.40
2022-12-17T07:47:51.628Z,63.00
2022-12-17T07:58:23.331Z,70.90
2022-12-17T08:08:45.720Z,46.00
2022-12-17T08:19:08.736Z,64.60
2022-12-17T08:29:31.733Z,62.50
2022-12-17T08:39:54.434Z,48.40
2022-12-17T08:50:17.447Z,62.10
2022-12-17T09:00:40.330Z,70.20
2022-12-17T09:11:02.739Z,64.50
2022-12-17T09:21:26.877Z,65.40
2022-12-17T09:31:51.014Z,68.80
2022-12-17T09:42:19.455Z,76.00
2022-12-17T09:52:45.086Z,72.10
2022-12-17T10:03:08.698Z,61.60
2022-12-17T10:13:38.200Z,70.20
2022-12-17T10:24:02.840Z,74.00
2022-12-17T10:34:31.272Z,76.50
2022-12-17T10:44:56.388Z,73.80
2022-12-17T10:55:24.813Z,94.00
2022-12-17T11:05:57.850Z,103.60
2022-12-17T11:16:29.340Z,98.60
2022-12-17T11:26:59.806Z,94.00
2022-12-17T11:37:41.258Z,90.80
2022-12-17T11:48:19.127Z,98.90
2022-12-17T11:58:44.675Z,82.20
2022-12-17T12:09:33.191Z,104.70
2022-12-17T12:20:15.893Z,88.00
2022-12-17T12:30:44.632Z,81.70
2022-12-17T12:41:18.092Z,81.60
2022-12-17T12:51:40.791Z,75.80
2022-12-17T13:02:03.530Z,86.20
2022-12-17T13:12:19.446Z,79.70
2022-12-17T13:22:24.489Z,77.90
2022-12-17T13:32:42.407Z,91.50
2022-12-17T13:42:48.146Z,78.90
2022-12-17T13:52:52.503Z,89.20
2022-12-17T14:02:57.331Z,88.80
2022-12-17T14:13:11.088Z,87.50
2022-12-17T14:23:27.669Z,92.70
2022-12-17T14:33:34.546Z,105.80
2022-12-17T14:43:38.684Z,90.30
2022-12-17T14:53:42.756Z,88.30
2022-12-17T15:03:47.455Z,90.70
2022-12-17T15:13:56.433Z,91.40
2022-12-17T15:24:01.667Z,103.40
2022-12-17T15:34:06.410Z,96.60
2022-12-17T15:44:10.534Z,100.00
2022-12-17T15:54:15.159Z,128.40
2022-12-17T16:04:24.945Z,127.30
2022-12-17T16:14:29.948Z,114.70
2022-12-17T16:24:34.251Z,135.40
2022-12-17T16:34:38.879Z,160.40
2022-12-17T16:44:43.396Z,114.00
2022-12-17T16:54:49.483Z,118.40
2022-12-17T17:04:54.327Z,105.60
2022-12-17T17:14:58.295Z,99.70
2022-12-17T17:25:02.835Z,97.50
2022-12-17T17:35:07.068Z,104.30
2022-12-17T17:45:12.146Z,95.00
2022-12-17T17:55:16.439Z,80.30
2022-12-17T18:05:20.894Z,92.00
2022-12-17T18:15:25.183Z,108.70
2022-12-17T18:25:34.173Z,116.70
2022-12-17T18:35:42.140Z,117.40
2022-12-17T18:45:47.281Z,107.50
2022-12-17T18:55:52.757Z,147.10
2022-12-17T19:05:57.699Z,145.60
2022-12-17T19:16:08.316Z,170.80
2022-12-17T19:26:16.114Z,133.50
2022-12-17T19:36:27.896Z,157.30
2022-12-17T19:46:34.512Z,118.20
2022-12-17T19:56:39.688Z,106.90
2022-12-17T20:06:45.937Z,103.40
2022-12-17T20:27:07.153Z,99.10
2022-12-17T20:37:11.989Z,126.70
2022-12-17T20:47:16.927Z,131.80
2022-12-17T20:57:21.753Z,110.90
2022-12-17T21:07:26.530Z,100.70
2022-12-17T21:17:30.587Z,131.30
2022-12-17T21:27:35.522Z,121.80
2022-12-17T21:37:39.452Z,119.50
2022-12-17T21:47:43.512Z,137.60
2022-12-17T21:57:47.507Z,124.30
2022-12-17T22:07:52.746Z,130.50
2022-12-17T22:17:57.608Z,146.70
2022-12-17T22:28:02.583Z,146.50
2022-12-17T22:41:37.477Z,114.40
2022-12-17T22:48:34.893Z,117.50
2022-12-17T22:58:38.744Z,105.30
2022-12-17T23:08:44.108Z,95.20
2022-12-17T23:18:50.208Z,93.30
2022-12-17T23:28:58.737Z,82.60
2022-12-17T23:39:02.634Z,87.80
2022-12-17T23:49:06.702Z,86.10
2022-12-17T23:59:11.297Z,90.80
